sensor_id;sensor_type;location;lat;lon;timestamp;temperature;humidity
18884;DHT22;9574;47.282;9.640;2023-08-07T00:02:28;11.50;99.90
18884;DHT22;9574;47.282;9.640;2023-08-07T00:04:54;11.50;99.90
18884;DHT22;9574;47.282;9.640;2023-08-07T00:07:23;11.50;99.90
18884;DHT22;9574;47.282;9.640;2023-08-07T00:09:51;11.60;99.90
18884;DHT22;9574;47.282;9.640;2023-08-07T00:12:18;11.60;99.90
18884;DHT22;9574;47.282;9.640;2023-08-07T00:14:47;11.60;99.90
18884;DHT22;9574;47.282;9.640;2023-08-07T00:17:14;11.60;99.90
18884;DHT22;9574;47.282;9.640;2023-08-07T00:19:42;11.50;99.90
18884;DHT22;9574;47.282;9.640;2023-08-07T00:22:09;11.40;99.90
18884;DHT22;9574;47.282;9.640;2023-08-07T00:24:36;11.40;99.90
18884;DHT22;9574;47.282;9.640;2023-08-07T00:27:03;11.40;99.90
18884;DHT22;9574;47.282;9.640;2023-08-07T00:29:32;11.40;99.90
18884;DHT22;9574;47.282;9.640;2023-08-07T00:31:59;11.50;99.90
18884;DHT22;9574;47.282;9.640;2023-08-07T00:34:26;11.50;99.90
18884;DHT22;9574;47.282;9.640;2023-08-07T00:36:54;11.50;99.90
18884;DHT22;9574;47.282;9.640;2023-08-07T00:39:21;11.50;99.90
18884;DHT22;9574;47.282;9.640;2023-08-07T00:41:48;11.50;99.90
18884;DHT22;9574;47.282;9.640;2023-08-07T00:44:16;11.40;99.90
18884;DHT22;9574;47.282;9.640;2023-08-07T00:46:43;11.40;99.90
18884;DHT22;9574;47.282;9.640;2023-08-07T00:49:11;11.70;99.90
18884;DHT22;9574;47.282;9.640;2023-08-07T00:51:39;11.70;99.90
18884;DHT22;9574;47.282;9.640;2023-08-07T00:54:10;11.90;99.90
18884;DHT22;9574;47.282;9.640;2023-08-07T00:56:39;12.10;99.90
18884;DHT22;9574;47.282;9.640;2023-08-07T00:59:06;12.20;99.90
18884;DHT22;9574;47.282;9.640;2023-08-07T01:01:33;12.20;99.90
18884;DHT22;9574;47.282;9.640;2023-08-07T01:04:02;12.00;99.90
18884;DHT22;9574;47.282;9.640;2023-08-07T01:06:29;11.80;99.90
18884;DHT22;9574;47.282;9.640;2023-08-07T01:08:56;11.60;99.90
18884;DHT22;9574;47.282;9.640;2023-08-07T01:11:33;11.50;99.90
18884;DHT22;9574;47.282;9.640;2023-08-07T01:14:07;11.50;99.90
18884;DHT22;9574;47.282;9.640;2023-08-07T01:16:37;11.50;99.90
18884;DHT22;9574;47.282;9.640;2023-08-07T01:19:16;11.50;99.90
18884;DHT22;9574;47.282;9.640;2023-08-07T01:21:48;11.50;99.90
18884;DHT22;9574;47.282;9.640;2023-08-07T01:24:15;11.50;99.90
18884;DHT22;9574;47.282;9.640;2023-08-07T01:26:43;11.50;99.90
18884;DHT22;9574;47.282;9.640;2023-08-07T01:29:14;11.50;99.90
18884;DHT22;9574;47.282;9.640;2023-08-07T01:31:45;11.50;99.90
18884;DHT22;9574;47.282;9.640;2023-08-07T01:34:16;11.50;99.90
18884;DHT22;9574;47.282;9.640;2023-08-07T01:36:47;11.40;99.90
18884;DHT22;9574;47.282;9.640;2023-08-07T01:39:15;11.30;99.90
18884;DHT22;9574;47.282;9.640;2023-08-07T01:41:43;11.30;99.90
18884;DHT22;9574;47.282;9.640;2023-08-07T01:44:10;11.30;99.90
18884;DHT22;9574;47.282;9.640;2023-08-07T01:46:37;11.30;99.90
18884;DHT22;9574;47.282;9.640;2023-08-07T01:49:04;11.20;99.90
18884;DHT22;9574;47.282;9.640;2023-08-07T01:51:31;11.20;99.90
18884;DHT22;9574;47.282;9.640;2023-08-07T01:53:59;11.20;99.90
18884;DHT22;9574;47.282;9.640;2023-08-07T01:56:26;11.20;99.90
18884;DHT22;9574;47.282;9.640;2023-08-07T01:58:53;11.30;99.90
18884;DHT22;9574;47.282;9.640;2023-08-07T02:01:20;11.30;99.90
18884;DHT22;9574;47.282;9.640;2023-08-07T02:03:47;11.30;99.90
18884;DHT22;9574;47.282;9.640;2023-08-07T02:06:14;11.40;99.90
18884;DHT22;9574;47.282;9.640;2023-08-07T02:08:41;11.60;99.90
18884;DHT22;9574;47.282;9.640;2023-08-07T02:11:09;11.60;99.90
18884;DHT22;9574;47.282;9.640;2023-08-07T02:13:36;11.50;99.90
18884;DHT22;9574;47.282;9.640;2023-08-07T02:16:03;11.50;99.90
18884;DHT22;9574;47.282;9.640;2023-08-07T02:18:30;11.50;99.90
18884;DHT22;9574;47.282;9.640;2023-08-07T02:20:57;11.40;99.90
18884;DHT22;9574;47.282;9.640;2023-08-07T02:23:24;11.40;99.90
18884;DHT22;9574;47.282;9.640;2023-08-07T02:25:53;11.40;99.90
18884;DHT22;9574;47.282;9.640;2023-08-07T02:28:22;11.50;99.90
18884;DHT22;9574;47.282;9.640;2023-08-07T02:30:49;11.50;99.90
18884;DHT22;9574;47.282;9.640;2023-08-07T02:33:16;11.50;99.90
18884;DHT22;9574;47.282;9.640;2023-08-07T02:35:43;11.70;99.90
18884;DHT22;9574;47.282;9.640;2023-08-07T02:38:11;11.80;99.90
18884;DHT22;9574;47.282;9.640;2023-08-07T02:40:38;11.90;99.90
18884;DHT22;9574;47.282;9.640;2023-08-07T02:43:05;11.90;99.90
18884;DHT22;9574;47.282;9.640;2023-08-07T02:45:34;11.90;99.90
18884;DHT22;9574;47.282;9.640;2023-08-07T02:48:01;11.90;99.90
18884;DHT22;9574;47.282;9.640;2023-08-07T02:50:28;11.70;99.90
18884;DHT22;9574;47.282;9.640;2023-08-07T02:52:58;11.60;99.90
18884;DHT22;9574;47.282;9.640;2023-08-07T02:55:25;11.70;99.90
18884;DHT22;9574;47.282;9.640;2023-08-07T02:57:52;11.50;99.90
18884;DHT22;9574;47.282;9.640;2023-08-07T03:00:19;11.40;99.90
18884;DHT22;9574;47.282;9.640;2023-08-07T03:02:47;11.40;99.90
18884;DHT22;9574;47.282;9.640;2023-08-07T03:05:14;11.20;99.90
18884;DHT22;9574;47.282;9.640;2023-08-07T03:07:41;11.20;99.90
18884;DHT22;9574;47.282;9.640;2023-08-07T03:10:08;11.20;99.90
18884;DHT22;9574;47.282;9.640;2023-08-07T03:12:35;11.20;99.90
18884;DHT22;9574;47.282;9.640;2023-08-07T03:15:03;11.30;99.90
18884;DHT22;9574;47.282;9.640;2023-08-07T03:17:30;11.20;99.90
18884;DHT22;9574;47.282;9.640;2023-08-07T03:19:59;11.30;99.90
18884;DHT22;9574;47.282;9.640;2023-08-07T03:22:26;11.60;99.90
18884;DHT22;9574;47.282;9.640;2023-08-07T03:24:53;11.70;99.90
18884;DHT22;9574;47.282;9.640;2023-08-07T03:27:21;11.60;99.90
18884;DHT22;9574;47.282;9.640;2023-08-07T03:29:48;11.50;99.90
18884;DHT22;9574;47.282;9.640;2023-08-07T03:32:15;11.30;99.90
18884;DHT22;9574;47.282;9.640;2023-08-07T03:34:42;11.40;99.90
18884;DHT22;9574;47.282;9.640;2023-08-07T03:37:11;11.40;99.90
18884;DHT22;9574;47.282;9.640;2023-08-07T03:39:38;11.30;99.90
18884;DHT22;9574;47.282;9.640;2023-08-07T03:42:05;11.20;99.90
18884;DHT22;9574;47.282;9.640;2023-08-07T03:44:32;11.40;99.90
18884;DHT22;9574;47.282;9.640;2023-08-07T03:47:00;11.40;99.90
18884;DHT22;9574;47.282;9.640;2023-08-07T03:49:27;11.30;99.90
18884;DHT22;9574;47.282;9.640;2023-08-07T03:51:54;11.30;99.90
18884;DHT22;9574;47.282;9.640;2023-08-07T03:54:23;11.40;99.90
18884;DHT22;9574;47.282;9.640;2023-08-07T03:56:50;11.60;99.90
18884;DHT22;9574;47.282;9.640;2023-08-07T03:59:17;11.60;99.90
18884;DHT22;9574;47.282;9.640;2023-08-07T04:01:44;11.50;99.90
18884;DHT22;9574;47.282;9.640;2023-08-07T04:04:11;11.60;99.90
18884;DHT22;9574;47.282;9.640;2023-08-07T04:06:38;11.40;99.90
18884;DHT22;9574;47.282;9.640;2023-08-07T04:09:05;11.30;99.90
18884;DHT22;9574;47.282;9.640;2023-08-07T04:11:33;11.20;99.90
18884;DHT22;9574;47.282;9.640;2023-08-07T04:14:00;11.30;99.90
18884;DHT22;9574;47.282;9.640;2023-08-07T04:16:27;11.30;99.90
18884;DHT22;9574;47.282;9.640;2023-08-07T04:18:54;11.20;99.90
18884;DHT22;9574;47.282;9.640;2023-08-07T04:21:21;11.10;99.90
18884;DHT22;9574;47.282;9.640;2023-08-07T04:23:48;11.00;99.90
18884;DHT22;9574;47.282;9.640;2023-08-07T04:26:15;10.90;99.90
18884;DHT22;9574;47.282;9.640;2023-08-07T04:28:44;11.00;99.90
18884;DHT22;9574;47.282;9.640;2023-08-07T04:31:11;11.00;99.90
18884;DHT22;9574;47.282;9.640;2023-08-07T04:33:38;11.00;99.90
18884;DHT22;9574;47.282;9.640;2023-08-07T04:36:05;11.00;99.90
18884;DHT22;9574;47.282;9.640;2023-08-07T04:38:32;11.10;99.90
18884;DHT22;9574;47.282;9.640;2023-08-07T04:40:59;11.00;99.90
18884;DHT22;9574;47.282;9.640;2023-08-07T04:43:26;11.00;99.90
18884;DHT22;9574;47.282;9.640;2023-08-07T04:45:55;11.00;99.90
18884;DHT22;9574;47.282;9.640;2023-08-07T04:48:22;11.00;99.90
18884;DHT22;9574;47.282;9.640;2023-08-07T04:50:51;11.00;99.90
18884;DHT22;9574;47.282;9.640;2023-08-07T04:53:18;11.00;99.90
18884;DHT22;9574;47.282;9.640;2023-08-07T04:55:45;11.00;99.90
18884;DHT22;9574;47.282;9.640;2023-08-07T04:58:12;11.10;99.90
18884;DHT22;9574;47.282;9.640;2023-08-07T05:00:39;11.00;99.90
18884;DHT22;9574;47.282;9.640;2023-08-07T05:03:08;10.90;99.90
18884;DHT22;9574;47.282;9.640;2023-08-07T05:05:35;10.90;99.90
18884;DHT22;9574;47.282;9.640;2023-08-07T05:08:02;10.90;99.90
18884;DHT22;9574;47.282;9.640;2023-08-07T05:10:29;11.10;99.90
18884;DHT22;9574;47.282;9.640;2023-08-07T05:12:56;11.20;99.90
18884;DHT22;9574;47.282;9.640;2023-08-07T05:15:23;11.20;99.90
18884;DHT22;9574;47.282;9.640;2023-08-07T05:17:50;11.20;99.90
18884;DHT22;9574;47.282;9.640;2023-08-07T05:20:19;11.40;99.90
18884;DHT22;9574;47.282;9.640;2023-08-07T05:22:46;11.60;99.90
18884;DHT22;9574;47.282;9.640;2023-08-07T05:25:13;11.60;99.90
18884;DHT22;9574;47.282;9.640;2023-08-07T05:27:41;11.70;99.90
18884;DHT22;9574;47.282;9.640;2023-08-07T05:30:09;11.70;99.90
18884;DHT22;9574;47.282;9.640;2023-08-07T05:32:36;11.50;99.90
18884;DHT22;9574;47.282;9.640;2023-08-07T05:35:04;11.40;99.90
18884;DHT22;9574;47.282;9.640;2023-08-07T05:37:34;11.50;99.90
18884;DHT22;9574;47.282;9.640;2023-08-07T05:40:02;11.80;99.90
18884;DHT22;9574;47.282;9.640;2023-08-07T05:42:29;11.70;99.90
18884;DHT22;9574;47.282;9.640;2023-08-07T05:44:56;11.50;99.90
18884;DHT22;9574;47.282;9.640;2023-08-07T05:47:23;11.40;99.90
18884;DHT22;9574;47.282;9.640;2023-08-07T05:49:49;11.30;99.90
18884;DHT22;9574;47.282;9.640;2023-08-07T05:52:17;11.50;99.90
18884;DHT22;9574;47.282;9.640;2023-08-07T05:54:46;11.70;99.90
18884;DHT22;9574;47.282;9.640;2023-08-07T05:57:13;11.80;99.90
18884;DHT22;9574;47.282;9.640;2023-08-07T05:59:40;11.80;99.90
18884;DHT22;9574;47.282;9.640;2023-08-07T06:02:07;11.70;99.90
18884;DHT22;9574;47.282;9.640;2023-08-07T06:04:36;11.60;99.90
18884;DHT22;9574;47.282;9.640;2023-08-07T06:07:04;11.60;99.90
18884;DHT22;9574;47.282;9.640;2023-08-07T06:09:31;11.60;99.90
18884;DHT22;9574;47.282;9.640;2023-08-07T06:11:59;11.50;99.90
18884;DHT22;9574;47.282;9.640;2023-08-07T06:14:26;11.40;99.90
18884;DHT22;9574;47.282;9.640;2023-08-07T06:16:54;11.40;99.90
18884;DHT22;9574;47.282;9.640;2023-08-07T06:19:23;11.50;99.90
18884;DHT22;9574;47.282;9.640;2023-08-07T06:21:52;11.40;99.90
18884;DHT22;9574;47.282;9.640;2023-08-07T06:24:19;11.40;99.90
18884;DHT22;9574;47.282;9.640;2023-08-07T06:26:46;11.50;99.90
18884;DHT22;9574;47.282;9.640;2023-08-07T06:29:14;11.50;99.90
18884;DHT22;9574;47.282;9.640;2023-08-07T06:31:41;11.50;99.90
18884;DHT22;9574;47.282;9.640;2023-08-07T06:34:09;11.40;99.90
18884;DHT22;9574;47.282;9.640;2023-08-07T06:36:36;11.40;99.90
18884;DHT22;9574;47.282;9.640;2023-08-07T06:39:03;11.50;99.90
18884;DHT22;9574;47.282;9.640;2023-08-07T06:41:30;11.50;99.90
18884;DHT22;9574;47.282;9.640;2023-08-07T06:43:57;11.60;99.90
18884;DHT22;9574;47.282;9.640;2023-08-07T06:46:25;11.80;99.90
18884;DHT22;9574;47.282;9.640;2023-08-07T06:48:53;12.00;99.90
18884;DHT22;9574;47.282;9.640;2023-08-07T06:51:20;12.00;99.90
18884;DHT22;9574;47.282;9.640;2023-08-07T06:53:47;12.10;99.90
18884;DHT22;9574;47.282;9.640;2023-08-07T06:56:14;11.90;99.90
18884;DHT22;9574;47.282;9.640;2023-08-07T06:58:41;11.90;99.90
18884;DHT22;9574;47.282;9.640;2023-08-07T07:01:08;12.00;99.90
18884;DHT22;9574;47.282;9.640;2023-08-07T07:03:36;11.90;99.90
18884;DHT22;9574;47.282;9.640;2023-08-07T07:06:03;11.80;99.90
18884;DHT22;9574;47.282;9.640;2023-08-07T07:08:30;11.70;99.90
18884;DHT22;9574;47.282;9.640;2023-08-07T07:10:57;11.60;99.90
18884;DHT22;9574;47.282;9.640;2023-08-07T07:13:24;11.60;99.90
18884;DHT22;9574;47.282;9.640;2023-08-07T07:15:55;11.60;99.90
18884;DHT22;9574;47.282;9.640;2023-08-07T07:18:22;11.80;99.90
18884;DHT22;9574;47.282;9.640;2023-08-07T07:20:56;11.80;99.90
18884;DHT22;9574;47.282;9.640;2023-08-07T07:23:24;11.70;99.90
18884;DHT22;9574;47.282;9.640;2023-08-07T07:25:51;11.70;99.90
18884;DHT22;9574;47.282;9.640;2023-08-07T07:28:18;11.70;99.90
18884;DHT22;9574;47.282;9.640;2023-08-07T07:30:45;11.80;99.90
18884;DHT22;9574;47.282;9.640;2023-08-07T07:33:12;11.90;99.90
18884;DHT22;9574;47.282;9.640;2023-08-07T07:35:39;11.90;99.90
18884;DHT22;9574;47.282;9.640;2023-08-07T07:38:08;11.80;99.90
18884;DHT22;9574;47.282;9.640;2023-08-07T07:40:36;11.90;99.90
18884;DHT22;9574;47.282;9.640;2023-08-07T07:43:03;12.10;99.90
18884;DHT22;9574;47.282;9.640;2023-08-07T07:45:30;12.20;99.90
18884;DHT22;9574;47.282;9.640;2023-08-07T07:47:59;12.20;99.90
18884;DHT22;9574;47.282;9.640;2023-08-07T07:50:26;12.10;99.90
18884;DHT22;9574;47.282;9.640;2023-08-07T07:52:53;12.20;99.90
18884;DHT22;9574;47.282;9.640;2023-08-07T07:55:21;12.20;99.90
18884;DHT22;9574;47.282;9.640;2023-08-07T07:57:48;12.20;99.90
18884;DHT22;9574;47.282;9.640;2023-08-07T08:00:15;12.10;99.90
18884;DHT22;9574;47.282;9.640;2023-08-07T08:02:43;12.20;99.90
18884;DHT22;9574;47.282;9.640;2023-08-07T08:05:10;12.30;99.90
18884;DHT22;9574;47.282;9.640;2023-08-07T08:07:38;12.30;99.90
18884;DHT22;9574;47.282;9.640;2023-08-07T08:10:07;12.20;99.90
18884;DHT22;9574;47.282;9.640;2023-08-07T08:12:36;12.10;99.90
18884;DHT22;9574;47.282;9.640;2023-08-07T08:15:03;12.00;99.90
18884;DHT22;9574;47.282;9.640;2023-08-07T08:17:30;11.80;99.90
18884;DHT22;9574;47.282;9.640;2023-08-07T08:19:58;11.90;99.90
18884;DHT22;9574;47.282;9.640;2023-08-07T08:22:25;11.80;99.90
18884;DHT22;9574;47.282;9.640;2023-08-07T08:24:52;11.80;99.90
18884;DHT22;9574;47.282;9.640;2023-08-07T08:27:19;12.00;99.90
18884;DHT22;9574;47.282;9.640;2023-08-07T08:29:48;12.00;99.90
18884;DHT22;9574;47.282;9.640;2023-08-07T08:32:15;11.90;99.90
18884;DHT22;9574;47.282;9.640;2023-08-07T08:34:42;11.90;99.90
18884;DHT22;9574;47.282;9.640;2023-08-07T08:37:09;11.90;99.90
18884;DHT22;9574;47.282;9.640;2023-08-07T08:39:37;12.10;99.90
18884;DHT22;9574;47.282;9.640;2023-08-07T08:42:04;12.20;99.90
18884;DHT22;9574;47.282;9.640;2023-08-07T08:44:35;12.30;99.90
18884;DHT22;9574;47.282;9.640;2023-08-07T08:47:05;12.40;99.90
18884;DHT22;9574;47.282;9.640;2023-08-07T08:49:35;12.40;99.90
18884;DHT22;9574;47.282;9.640;2023-08-07T08:52:02;12.30;99.90
18884;DHT22;9574;47.282;9.640;2023-08-07T08:54:30;12.30;99.90
18884;DHT22;9574;47.282;9.640;2023-08-07T08:56:58;12.20;99.90
18884;DHT22;9574;47.282;9.640;2023-08-07T08:59:25;12.00;99.90
18884;DHT22;9574;47.282;9.640;2023-08-07T09:01:52;12.00;99.90
18884;DHT22;9574;47.282;9.640;2023-08-07T09:04:21;12.10;99.90
18884;DHT22;9574;47.282;9.640;2023-08-07T09:06:48;12.00;99.90
18884;DHT22;9574;47.282;9.640;2023-08-07T09:09:17;12.10;99.90
18884;DHT22;9574;47.282;9.640;2023-08-07T09:11:47;12.10;99.90
18884;DHT22;9574;47.282;9.640;2023-08-07T09:14:16;12.20;99.90
18884;DHT22;9574;47.282;9.640;2023-08-07T09:16:44;12.40;99.90
18884;DHT22;9574;47.282;9.640;2023-08-07T09:19:12;12.60;99.90
18884;DHT22;9574;47.282;9.640;2023-08-07T09:21:41;12.60;99.90
18884;DHT22;9574;47.282;9.640;2023-08-07T09:24:08;12.70;99.90
18884;DHT22;9574;47.282;9.640;2023-08-07T09:26:35;12.70;99.90
18884;DHT22;9574;47.282;9.640;2023-08-07T09:29:02;12.80;99.90
18884;DHT22;9574;47.282;9.640;2023-08-07T09:31:29;12.90;99.90
18884;DHT22;9574;47.282;9.640;2023-08-07T09:34:02;13.10;99.90
18884;DHT22;9574;47.282;9.640;2023-08-07T09:36:30;13.40;99.90
18884;DHT22;9574;47.282;9.640;2023-08-07T09:39:03;13.40;99.90
18884;DHT22;9574;47.282;9.640;2023-08-07T09:41:30;13.50;99.90
18884;DHT22;9574;47.282;9.640;2023-08-07T09:43:57;13.50;99.90
18884;DHT22;9574;47.282;9.640;2023-08-07T09:46:25;13.40;99.90
18884;DHT22;9574;47.282;9.640;2023-08-07T09:48:57;13.20;99.90
18884;DHT22;9574;47.282;9.640;2023-08-07T09:51:24;13.00;99.90
18884;DHT22;9574;47.282;9.640;2023-08-07T09:53:51;12.90;99.90
18884;DHT22;9574;47.282;9.640;2023-08-07T09:56:20;12.70;99.90
18884;DHT22;9574;47.282;9.640;2023-08-07T09:58:47;12.70;99.90
18884;DHT22;9574;47.282;9.640;2023-08-07T10:01:16;12.70;99.90
18884;DHT22;9574;47.282;9.640;2023-08-07T10:03:43;12.80;99.90
18884;DHT22;9574;47.282;9.640;2023-08-07T10:06:11;12.90;99.90
18884;DHT22;9574;47.282;9.640;2023-08-07T10:08:39;12.80;99.90
18884;DHT22;9574;47.282;9.640;2023-08-07T10:11:08;12.80;99.90
18884;DHT22;9574;47.282;9.640;2023-08-07T10:13:38;12.80;99.90
18884;DHT22;9574;47.282;9.640;2023-08-07T10:16:06;12.70;99.90
18884;DHT22;9574;47.282;9.640;2023-08-07T10:18:33;12.70;99.90
18884;DHT22;9574;47.282;9.640;2023-08-07T10:21:02;12.50;99.90
18884;DHT22;9574;47.282;9.640;2023-08-07T10:23:38;12.40;99.90
18884;DHT22;9574;47.282;9.640;2023-08-07T10:26:08;12.30;99.90
18884;DHT22;9574;47.282;9.640;2023-08-07T10:28:39;12.20;99.90
18884;DHT22;9574;47.282;9.640;2023-08-07T10:31:07;12.10;99.90
18884;DHT22;9574;47.282;9.640;2023-08-07T10:33:36;12.00;99.90
18884;DHT22;9574;47.282;9.640;2023-08-07T10:36:11;12.10;99.90
18884;DHT22;9574;47.282;9.640;2023-08-07T10:38:49;12.20;99.90
18884;DHT22;9574;47.282;9.640;2023-08-07T10:41:18;12.40;99.90
18884;DHT22;9574;47.282;9.640;2023-08-07T10:43:46;12.60;99.90
18884;DHT22;9574;47.282;9.640;2023-08-07T10:46:16;12.90;99.90
18884;DHT22;9574;47.282;9.640;2023-08-07T10:48:47;13.10;99.90
18884;DHT22;9574;47.282;9.640;2023-08-07T10:51:19;13.10;99.90
18884;DHT22;9574;47.282;9.640;2023-08-07T10:53:47;13.20;99.90
18884;DHT22;9574;47.282;9.640;2023-08-07T10:56:17;13.60;99.90
18884;DHT22;9574;47.282;9.640;2023-08-07T10:58:50;14.00;99.90
18884;DHT22;9574;47.282;9.640;2023-08-07T11:01:19;14.20;99.90
18884;DHT22;9574;47.282;9.640;2023-08-07T11:03:49;14.50;99.90
18884;DHT22;9574;47.282;9.640;2023-08-07T11:06:17;14.50;99.90
18884;DHT22;9574;47.282;9.640;2023-08-07T11:08:44;14.50;99.90
18884;DHT22;9574;47.282;9.640;2023-08-07T11:11:11;14.80;99.90
18884;DHT22;9574;47.282;9.640;2023-08-07T11:13:38;15.10;99.90
18884;DHT22;9574;47.282;9.640;2023-08-07T11:16:06;15.40;99.90
18884;DHT22;9574;47.282;9.640;2023-08-07T11:18:34;15.70;99.90
18884;DHT22;9574;47.282;9.640;2023-08-07T11:21:04;15.60;99.90
18884;DHT22;9574;47.282;9.640;2023-08-07T11:23:31;15.40;99.90
18884;DHT22;9574;47.282;9.640;2023-08-07T11:25:58;15.00;99.90
18884;DHT22;9574;47.282;9.640;2023-08-07T11:28:25;14.60;99.90
18884;DHT22;9574;47.282;9.640;2023-08-07T11:30:53;14.60;99.90
18884;DHT22;9574;47.282;9.640;2023-08-07T11:33:23;14.80;99.90
18884;DHT22;9574;47.282;9.640;2023-08-07T11:35:50;15.40;99.90
18884;DHT22;9574;47.282;9.640;2023-08-07T11:38:29;15.90;99.90
18884;DHT22;9574;47.282;9.640;2023-08-07T11:40:58;16.40;99.90
18884;DHT22;9574;47.282;9.640;2023-08-07T11:43:27;16.40;99.90
18884;DHT22;9574;47.282;9.640;2023-08-07T11:45:55;16.30;99.90
18884;DHT22;9574;47.282;9.640;2023-08-07T11:48:26;16.10;99.90
18884;DHT22;9574;47.282;9.640;2023-08-07T11:50:54;15.60;99.90
18884;DHT22;9574;47.282;9.640;2023-08-07T11:53:22;15.40;99.90
18884;DHT22;9574;47.282;9.640;2023-08-07T11:55:53;15.30;99.90
18884;DHT22;9574;47.282;9.640;2023-08-07T11:58:22;15.30;99.90
18884;DHT22;9574;47.282;9.640;2023-08-07T12:00:49;15.20;99.90
18884;DHT22;9574;47.282;9.640;2023-08-07T12:03:27;15.20;99.90
18884;DHT22;9574;47.282;9.640;2023-08-07T12:05:56;15.40;99.90
18884;DHT22;9574;47.282;9.640;2023-08-07T12:08:24;16.00;99.90
18884;DHT22;9574;47.282;9.640;2023-08-07T12:10:51;15.90;99.90
18884;DHT22;9574;47.282;9.640;2023-08-07T12:13:23;15.80;99.90
18884;DHT22;9574;47.282;9.640;2023-08-07T12:15:51;15.70;99.90
18884;DHT22;9574;47.282;9.640;2023-08-07T12:18:20;15.50;99.90
18884;DHT22;9574;47.282;9.640;2023-08-07T12:20:50;15.40;99.90
18884;DHT22;9574;47.282;9.640;2023-08-07T12:23:26;15.30;99.90
18884;DHT22;9574;47.282;9.640;2023-08-07T12:25:57;15.30;99.90
18884;DHT22;9574;47.282;9.640;2023-08-07T12:28:24;15.20;99.90
18884;DHT22;9574;47.282;9.640;2023-08-07T12:30:52;15.20;99.90
18884;DHT22;9574;47.282;9.640;2023-08-07T12:33:21;15.20;99.90
18884;DHT22;9574;47.282;9.640;2023-08-07T12:35:54;15.10;99.90
18884;DHT22;9574;47.282;9.640;2023-08-07T12:38:27;15.10;99.90
18884;DHT22;9574;47.282;9.640;2023-08-07T12:40:54;15.20;99.90
18884;DHT22;9574;47.282;9.640;2023-08-07T12:43:22;15.10;99.90
18884;DHT22;9574;47.282;9.640;2023-08-07T12:45:49;15.10;99.90
18884;DHT22;9574;47.282;9.640;2023-08-07T12:48:16;15.10;99.90
18884;DHT22;9574;47.282;9.640;2023-08-07T12:50:44;15.00;99.90
18884;DHT22;9574;47.282;9.640;2023-08-07T12:53:12;15.00;99.90
18884;DHT22;9574;47.282;9.640;2023-08-07T12:55:39;14.90;99.90
18884;DHT22;9574;47.282;9.640;2023-08-07T12:58:06;14.90;99.90
18884;DHT22;9574;47.282;9.640;2023-08-07T13:00:33;15.00;99.90
18884;DHT22;9574;47.282;9.640;2023-08-07T13:03:00;15.20;99.90
18884;DHT22;9574;47.282;9.640;2023-08-07T13:05:28;15.20;99.90
18884;DHT22;9574;47.282;9.640;2023-08-07T13:07:56;15.10;99.90
18884;DHT22;9574;47.282;9.640;2023-08-07T13:10:25;15.10;99.90
18884;DHT22;9574;47.282;9.640;2023-08-07T13:12:53;15.10;99.90
18884;DHT22;9574;47.282;9.640;2023-08-07T13:15:21;15.00;99.90
18884;DHT22;9574;47.282;9.640;2023-08-07T13:17:48;14.90;99.90
18884;DHT22;9574;47.282;9.640;2023-08-07T13:20:14;14.70;99.90
18884;DHT22;9574;47.282;9.640;2023-08-07T13:22:42;14.70;99.90
18884;DHT22;9574;47.282;9.640;2023-08-07T13:25:11;14.60;99.90
18884;DHT22;9574;47.282;9.640;2023-08-07T13:27:40;14.80;99.90
18884;DHT22;9574;47.282;9.640;2023-08-07T13:30:08;15.00;99.90
18884;DHT22;9574;47.282;9.640;2023-08-07T13:32:38;15.10;99.90
18884;DHT22;9574;47.282;9.640;2023-08-07T13:35:06;15.10;99.90
18884;DHT22;9574;47.282;9.640;2023-08-07T13:37:34;15.10;99.90
18884;DHT22;9574;47.282;9.640;2023-08-07T13:40:05;15.20;99.90
18884;DHT22;9574;47.282;9.640;2023-08-07T13:42:33;15.70;99.90
18884;DHT22;9574;47.282;9.640;2023-08-07T13:45:01;16.10;99.90
18884;DHT22;9574;47.282;9.640;2023-08-07T13:47:28;16.60;99.90
18884;DHT22;9574;47.282;9.640;2023-08-07T13:49:54;16.80;99.90
18884;DHT22;9574;47.282;9.640;2023-08-07T13:52:23;16.70;99.90
18884;DHT22;9574;47.282;9.640;2023-08-07T13:54:50;16.80;99.90
18884;DHT22;9574;47.282;9.640;2023-08-07T13:57:17;17.10;99.90
18884;DHT22;9574;47.282;9.640;2023-08-07T13:59:44;17.10;99.90
18884;DHT22;9574;47.282;9.640;2023-08-07T14:02:13;17.20;99.90
18884;DHT22;9574;47.282;9.640;2023-08-07T14:04:40;16.90;99.90
18884;DHT22;9574;47.282;9.640;2023-08-07T14:07:10;16.50;99.90
18884;DHT22;9574;47.282;9.640;2023-08-07T14:09:38;16.70;99.90
18884;DHT22;9574;47.282;9.640;2023-08-07T14:12:05;17.10;99.90
18884;DHT22;9574;47.282;9.640;2023-08-07T14:14:32;17.20;99.90
18884;DHT22;9574;47.282;9.640;2023-08-07T14:16:59;17.10;99.90
18884;DHT22;9574;47.282;9.640;2023-08-07T14:19:29;16.80;99.90
18884;DHT22;9574;47.282;9.640;2023-08-07T14:21:56;16.70;99.90
18884;DHT22;9574;47.282;9.640;2023-08-07T14:24:23;16.50;99.90
18884;DHT22;9574;47.282;9.640;2023-08-07T14:26:52;16.30;99.90
18884;DHT22;9574;47.282;9.640;2023-08-07T14:29:21;16.20;99.90
18884;DHT22;9574;47.282;9.640;2023-08-07T14:31:48;16.10;99.90
18884;DHT22;9574;47.282;9.640;2023-08-07T14:34:15;16.10;99.90
18884;DHT22;9574;47.282;9.640;2023-08-07T14:36:43;15.90;99.90
18884;DHT22;9574;47.282;9.640;2023-08-07T14:39:11;15.70;99.90
18884;DHT22;9574;47.282;9.640;2023-08-07T14:41:37;15.50;99.90
18884;DHT22;9574;47.282;9.640;2023-08-07T14:44:04;15.50;99.90
18884;DHT22;9574;47.282;9.640;2023-08-07T14:46:31;15.50;99.90
18884;DHT22;9574;47.282;9.640;2023-08-07T14:48:59;15.60;99.90
18884;DHT22;9574;47.282;9.640;2023-08-07T14:51:25;15.70;99.90
18884;DHT22;9574;47.282;9.640;2023-08-07T14:53:54;15.80;99.90
18884;DHT22;9574;47.282;9.640;2023-08-07T14:56:21;16.00;99.90
18884;DHT22;9574;47.282;9.640;2023-08-07T14:58:48;15.90;99.90
18884;DHT22;9574;47.282;9.640;2023-08-07T15:01:15;15.90;99.90
18884;DHT22;9574;47.282;9.640;2023-08-07T15:03:42;15.80;99.90
18884;DHT22;9574;47.282;9.640;2023-08-07T15:06:09;15.40;99.90
18884;DHT22;9574;47.282;9.640;2023-08-07T15:08:36;15.00;99.90
18884;DHT22;9574;47.282;9.640;2023-08-07T15:11:05;14.80;99.90
18884;DHT22;9574;47.282;9.640;2023-08-07T15:13:32;14.50;99.90
18884;DHT22;9574;47.282;9.640;2023-08-07T15:15:59;14.60;99.90
18884;DHT22;9574;47.282;9.640;2023-08-07T15:18:29;14.60;99.90
18884;DHT22;9574;47.282;9.640;2023-08-07T15:23:25;15.20;99.90
18884;DHT22;9574;47.282;9.640;2023-08-07T15:25:52;15.30;99.90
18884;DHT22;9574;47.282;9.640;2023-08-07T15:28:20;15.40;99.90
18884;DHT22;9574;47.282;9.640;2023-08-07T15:30:48;15.50;99.90
18884;DHT22;9574;47.282;9.640;2023-08-07T15:33:16;15.70;99.90
18884;DHT22;9574;47.282;9.640;2023-08-07T15:35:43;15.70;99.90
18884;DHT22;9574;47.282;9.640;2023-08-07T15:38:10;15.60;99.90
18884;DHT22;9574;47.282;9.640;2023-08-07T15:40:38;15.50;99.90
18884;DHT22;9574;47.282;9.640;2023-08-07T15:43:06;15.50;99.90
18884;DHT22;9574;47.282;9.640;2023-08-07T15:45:38;15.50;99.90
18884;DHT22;9574;47.282;9.640;2023-08-07T15:48:06;15.30;99.90
18884;DHT22;9574;47.282;9.640;2023-08-07T15:50:34;15.20;99.90
18884;DHT22;9574;47.282;9.640;2023-08-07T15:53:04;15.10;99.90